Manhattan, Kansas
Current Conditions -  °F | °C
As of 5:59 AM on Sunday 23 Nov 2014 (Local Time) from KMHK Reporting Station
Overcast Overcast  
Wind Chill: 55°   Ceiling: 2700
Heat Index: 55°   Visibility: 10mi
Dew Point: 53°   Wind: 7mph
Humidity: 93%   Direction: 160°SSE
Pressure: 29.48"   Gusts: NA
Location:  39.18°N, 96.56°W
Report Text: KMHK 231159Z AUTO 16006KT 10SM SCT013 SCT020 OVC027 13/12 A2948 RMK AO2 T01280117 TSNO
Loading
Personal Weather Stations






























Interactive Weather Map New forecast layout! Learn more

10-Day Weather Forecast

Advertisements
Track Severe Weather on mobile